Time;durP1;ratioP1;P1;durP2;ratioP2;P2;SDS_P1;SDS_P2;PMS_P1;PMS_P2;Temp;Humidity;BMP_temperature;BMP_pressure;BME280_temperature;BME280_humidity;BME280_pressure;Samples;Min_cycle;Max_cycle;Signal;HPM_P1;HPM_P2
2021/09/29 00:02:15;;;;;;;15.80;9.90;;;;;;;11.09;68.36;101202.48;116527;1191;21913;-77
2021/09/29 00:04:45;;;;;;;12.30;8.60;;;;;;;11.05;68.57;101197.20;116539;1193;21897;-78
2021/09/29 00:07:16;;;;;;;14.00;9.50;;;;;;;11.02;68.65;101198.19;116194;1196;21905;-78
2021/09/29 00:09:45;;;;;;;13.00;9.70;;;;;;;10.98;68.76;101193.66;116304;1190;21894;-78
2021/09/29 00:12:15;;;;;;;12.60;9.00;;;;;;;10.95;68.90;101194.81;116400;1196;21890;-77
2021/09/29 00:14:45;;;;;;;10.70;9.60;;;;;;;10.91;68.91;101190.80;116287;1194;22033;-77
2021/09/29 00:17:14;;;;;;;14.30;10.10;;;;;;;10.86;68.87;101190.95;116307;1193;21878;-77
2021/09/29 00:19:43;;;;;;;11.80;10.40;;;;;;;10.82;69.06;101187.84;116537;1194;21886;-77
2021/09/29 00:22:13;;;;;;;14.00;11.00;;;;;;;10.78;69.20;101188.52;116509;1192;22652;-77
2021/09/29 00:24:44;;;;;;;14.60;11.70;;;;;;;10.74;69.22;101188.41;116512;1194;22663;-77
2021/09/29 00:27:14;;;;;;;11.60;10.40;;;;;;;10.70;69.35;101187.10;116499;1194;22279;-77
2021/09/29 00:29:43;;;;;;;12.20;10.00;;;;;;;10.66;69.46;101191.85;116314;1196;23546;-77
2021/09/29 00:32:17;;;;;;;14.30;10.60;;;;;;;10.65;69.67;101193.23;116321;1194;24227;-77
2021/09/29 00:34:46;;;;;;;15.70;10.70;;;;;;;10.65;69.80;101190.87;116529;1193;22642;-77
2021/09/29 00:37:23;;;;;;;12.50;9.50;;;;;;;10.66;69.85;101194.16;116622;1189;21873;-78
2021/09/29 00:39:53;;;;;;;11.80;10.20;;;;;;;10.65;69.98;101195.45;116846;1189;23543;-78
2021/09/29 00:42:26;;;;;;;12.60;10.10;;;;;;;10.66;69.93;101193.83;116550;1192;22356;-78
2021/09/29 00:44:55;;;;;;;13.40;10.30;;;;;;;10.63;69.89;101193.51;116517;1190;21892;-77
2021/09/29 00:47:27;;;;;;;12.10;10.80;;;;;;;10.62;69.98;101191.02;116394;1193;23559;-77
2021/09/29 00:49:57;;;;;;;11.90;10.70;;;;;;;10.61;69.99;101186.02;116328;1195;21888;-77
2021/09/29 00:52:27;;;;;;;14.60;11.30;;;;;;;10.55;70.00;101183.56;116521;1193;22371;-77
2021/09/29 00:54:57;;;;;;;12.40;11.20;;;;;;;10.52;70.12;101183.47;116421;1192;21934;-77
2021/09/29 00:57:27;;;;;;;11.40;10.30;;;;;;;10.51;70.04;101179.23;116527;1193;22854;-77
2021/09/29 00:59:56;;;;;;;17.00;12.50;;;;;;;10.46;70.08;101173.85;116608;1190;21865;-77
2021/09/29 01:02:26;;;;;;;13.00;11.70;;;;;;;10.42;70.28;101176.91;116861;1190;21905;-77
2021/09/29 01:04:56;;;;;;;12.70;10.20;;;;;;;10.40;70.32;101173.58;116602;1191;21937;-77
2021/09/29 01:07:32;;;;;;;13.20;11.20;;;;;;;10.38;70.28;101171.67;116859;1191;21928;-77
2021/09/29 01:10:16;;;;;;;12.80;10.10;;;;;;;10.33;70.37;101168.91;116771;1191;22078;-77
2021/09/29 01:13:10;;;;;;;16.10;11.40;;;;;;;10.25;70.32;101165.63;116863;1190;21919;-77
2021/09/29 01:15:49;;;;;;;14.40;11.60;;;;;;;10.20;70.54;101167.16;116545;1194;21926;-77
2021/09/29 01:18:23;;;;;;;13.40;11.20;;;;;;;10.17;70.69;101164.84;116630;1194;21895;-77
2021/09/29 01:21:01;;;;;;;14.30;12.00;;;;;;;10.13;70.65;101162.87;116358;1196;21906;-77
2021/09/29 01:24:43;;;;;;;17.50;12.50;;;;;;;10.09;70.78;101160.05;116314;1196;21895;-78
2021/09/29 01:27:14;;;;;;;12.90;10.80;;;;;;;10.04;70.96;101160.93;116080;1199;22506;-78
2021/09/29 01:29:46;;;;;;;12.90;10.90;;;;;;;9.99;70.90;101162.64;116263;1193;22900;-78
2021/09/29 01:32:21;;;;;;;12.80;11.60;;;;;;;9.97;71.03;101163.38;116306;1196;22310;-77
2021/09/29 01:34:55;;;;;;;14.40;12.30;;;;;;;9.95;71.05;101161.23;116485;1194;21904;-78
2021/09/29 01:37:25;;;;;;;13.70;12.20;;;;;;;9.93;71.15;101159.35;116548;1192;21908;-77
2021/09/29 01:39:55;;;;;;;17.90;13.30;;;;;;;9.91;71.27;101151.22;116529;1194;22009;-78
2021/09/29 01:42:25;;;;;;;18.10;15.80;;;;;;;9.92;71.39;101148.67;116571;1194;23446;-78
2021/09/29 01:44:54;;;;;;;21.20;19.00;;;;;;;9.92;71.29;101148.66;116534;1192;23623;-78
2021/09/29 01:47:24;;;;;;;21.90;19.80;;;;;;;9.89;71.31;101153.31;116760;1187;21897;-77
2021/09/29 01:50:00;;;;;;;22.30;19.90;;;;;;;9.86;71.24;101150.93;116597;1192;21912;-78
2021/09/29 01:52:36;;;;;;;19.90;16.60;;;;;;;9.83;71.26;101155.53;116658;1190;21884;-78
2021/09/29 01:55:07;;;;;;;15.90;14.30;;;;;;;9.79;71.34;101159.00;116804;1191;23398;-78
2021/09/29 01:57:37;;;;;;;15.50;14.00;;;;;;;9.74;71.28;101157.05;116821;1190;21922;-78
2021/09/29 02:00:09;;;;;;;16.00;14.40;;;;;;;9.68;71.40;101158.25;116825;1189;21900;-78
2021/09/29 02:02:43;;;;;;;16.50;14.50;;;;;;;9.65;71.44;101158.90;116809;1190;21881;-78
2021/09/29 02:05:14;;;;;;;19.00;14.80;;;;;;;9.61;71.50;101158.58;116853;1190;22097;-78
2021/09/29 02:07:43;;;;;;;15.80;14.10;;;;;;;9.57;71.40;101159.00;116543;1190;22914;-77
2021/09/29 02:10:13;;;;;;;17.10;15.30;;;;;;;9.51;71.47;101154.94;116557;1193;21908;-77
2021/09/29 02:12:43;;;;;;;18.00;15.10;;;;;;;9.45;71.56;101155.30;116579;1183;22913;-78
2021/09/29 02:15:13;;;;;;;17.00;15.20;;;;;;;9.42;71.88;101158.75;116593;1193;22841;-77
2021/09/29 02:17:42;;;;;;;16.30;14.60;;;;;;;9.39;71.86;101156.89;116608;1193;21937;-77
2021/09/29 02:20:12;;;;;;;16.00;14.30;;;;;;;9.36;71.97;101152.06;116634;1187;23624;-77
2021/09/29 02:22:42;;;;;;;16.90;15.20;;;;;;;9.35;72.04;101153.09;116861;1190;23550;-78
2021/09/29 02:25:12;;;;;;;17.70;13.80;;;;;;;9.31;72.03;101152.92;116900;1188;21971;-78
2021/09/29 02:27:42;;;;;;;17.50;14.60;;;;;;;9.27;72.12;101155.57;117156;1187;21912;-78
2021/09/29 02:30:13;;;;;;;20.20;14.70;;;;;;;9.23;72.26;101152.23;117161;1185;21902;-78
2021/09/29 02:32:42;;;;;;;17.30;14.30;;;;;;;9.21;72.29;101150.52;117069;1188;23533;-78
2021/09/29 02:35:12;;;;;;;16.30;13.60;;;;;;;9.19;72.28;101148.35;117104;1188;24733;-78
2021/09/29 02:37:44;;;;;;;16.10;14.10;;;;;;;9.16;72.40;101148.79;117064;1187;23605;-78
2021/09/29 02:40:15;;;;;;;14.90;13.30;;;;;;;9.13;72.36;101150.15;117034;1187;21897;-78
2021/09/29 02:42:45;;;;;;;16.10;12.90;;;;;;;9.10;72.43;101152.65;116853;1189;21887;-78
2021/09/29 02:45:15;;;;;;;18.70;13.40;;;;;;;9.06;72.44;101154.78;116821;1189;22612;-78
2021/09/29 02:47:47;;;;;;;14.70;12.90;;;;;;;9.02;72.49;101153.97;116939;1189;23471;-78
2021/09/29 02:50:18;;;;;;;16.30;14.10;;;;;;;8.99;72.60;101153.53;116863;1189;24216;-77
2021/09/29 02:52:48;;;;;;;13.50;12.30;;;;;;;8.98;72.70;101150.25;116809;1190;23512;-78
2021/09/29 02:55:18;;;;;;;13.50;12.10;;;;;;;8.99;72.75;101150.23;116548;1187;23576;-78
2021/09/29 02:57:49;;;;;;;14.10;12.60;;;;;;;8.96;72.65;101146.78;116549;1190;21917;-77
2021/09/29 03:00:18;;;;;;;18.00;13.20;;;;;;;8.92;72.74;101141.30;116583;1192;22635;-77
2021/09/29 03:02:48;;;;;;;15.50;13.60;;;;;;;8.92;72.87;101143.63;116289;1195;21893;-77
2021/09/29 03:05:17;;;;;;;18.20;12.50;;;;;;;8.93;73.06;101148.05;116254;1195;21886;-78
2021/09/29 03:07:47;;;;;;;22.00;14.00;;;;;;;8.92;73.04;101145.20;116356;1193;21916;-77
2021/09/29 03:10:17;;;;;;;13.50;11.70;;;;;;;8.91;73.07;101145.95;116529;1194;21917;-77
2021/09/29 03:12:47;;;;;;;13.00;11.70;;;;;;;8.91;73.05;101145.23;116500;1194;21962;-77
2021/09/29 03:15:16;;;;;;;17.10;12.90;;;;;;;8.90;73.10;101143.95;116659;1194;21906;-77
2021/09/29 03:17:46;;;;;;;14.80;13.10;;;;;;;8.90;72.99;101144.42;116540;1194;21911;-77
2021/09/29 03:20:16;;;;;;;14.10;12.70;;;;;;;8.90;72.98;101141.46;116247;1193;23579;-78
2021/09/29 03:22:45;;;;;;;14.20;12.80;;;;;;;8.89;72.93;101141.63;116182;1197;21914;-77
2021/09/29 03:25:16;;;;;;;18.40;14.60;;;;;;;8.84;72.93;101143.39;116168;1195;22948;-77
2021/09/29 03:27:45;;;;;;;15.90;14.30;;;;;;;8.83;73.01;101145.86;116251;1195;21944;-77
2021/09/29 03:30:16;;;;;;;16.70;14.60;;;;;;;8.80;72.91;101146.47;116164;1197;21891;-77
2021/09/29 03:32:45;;;;;;;19.10;15.80;;;;;;;8.76;72.82;101145.71;116239;1196;21948;-77
2021/09/29 03:35:15;;;;;;;20.50;18.30;;;;;;;8.73;72.88;101145.10;116176;1193;21904;-77
2021/09/29 03:37:44;;;;;;;20.80;18.70;;;;;;;8.70;72.86;101144.71;116321;1196;23105;-77
2021/09/29 03:40:16;;;;;;;21.40;19.00;;;;;;;8.67;72.97;101147.59;116364;1193;23571;-77
2021/09/29 03:42:45;;;;;;;;;;;;;;;8.63;72.93;101147.58;116346;1196;21929;-77
2021/09/29 03:45:15;;;;;;;24.00;20.80;;;;;;;8.52;73.07;101149.73;116398;1193;21946;-77
2021/09/29 03:47:44;;;;;;;25.40;23.00;;;;;;;8.49;73.22;101146.38;116553;1190;23545;-77
2021/09/29 03:50:14;;;;;;;26.60;24.00;;;;;;;8.50;73.33;101147.31;116561;1192;21887;-77
2021/09/29 03:52:43;;;;;;;23.30;21.00;;;;;;;8.51;73.26;101144.46;116323;1194;23445;-77
2021/09/29 03:55:13;;;;;;;25.50;22.80;;;;;;;8.47;73.25;101143.52;116710;1190;21930;-76
2021/09/29 03:57:43;;;;;;;27.40;24.50;;;;;;;8.45;73.27;101137.98;116820;1189;21919;-77
2021/09/29 04:00:13;;;;;;;26.10;23.50;;;;;;;8.41;73.24;101141.97;116853;1190;21904;-77
2021/09/29 04:02:42;;;;;;;26.60;23.90;;;;;;;8.37;73.25;101144.02;116839;1189;21888;-77
2021/09/29 04:05:12;;;;;;;28.60;25.30;;;;;;;8.35;73.30;101137.41;116695;1190;23504;-77
2021/09/29 04:07:41;;;;;;;28.30;25.40;;;;;;;8.32;73.36;101138.87;116657;1191;21981;-76
2021/09/29 04:10:11;;;;;;;28.70;26.00;;;;;;;8.29;73.48;101139.27;116837;1188;21927;-76
2021/09/29 04:12:59;;;;;;;28.40;25.60;;;;;;;8.28;73.50;101134.70;117105;1179;21942;-76
2021/09/29 04:15:37;;;;;;;28.60;25.90;;;;;;;8.22;73.43;101128.02;117019;1184;23504;-77
2021/09/29 04:18:09;;;;;;;28.30;25.70;;;;;;;8.19;73.55;101128.94;116931;1187;23565;-76
2021/09/29 04:20:41;;;;;;;29.10;26.40;;;;;;;8.17;73.59;101124.90;117076;1188;21915;-76
2021/09/29 04:23:10;;;;;;;31.50;28.20;;;;;;;8.15;73.54;101124.91;117096;1187;21878;-76
2021/09/29 04:25:41;;;;;;;30.20;27.30;;;;;;;8.12;73.71;101123.60;116676;1190;21896;-76
2021/09/29 04:28:10;;;;;;;33.20;28.80;;;;;;;8.11;73.79;101121.63;116692;1190;23448;-76
2021/09/29 04:30:46;;;;;;;31.10;27.90;;;;;;;8.10;73.83;101121.98;116587;1192;22917;-76
2021/09/29 04:33:36;;;;;;;31.10;28.10;;;;;;;8.08;73.87;101122.71;116648;1192;22174;-77
2021/09/29 04:36:18;;;;;;;33.50;30.20;;;;;;;8.04;73.87;101120.77;116543;1188;22913;-77
2021/09/29 04:38:48;;;;;;;32.60;29.20;;;;;;;8.02;73.93;101120.07;116787;1192;23630;-76
2021/09/29 04:41:22;;;;;;;35.70;32.20;;;;;;;8.03;74.05;101120.36;116321;1194;22127;-76
2021/09/29 04:43:52;;;;;;;37.80;33.90;;;;;;;8.01;73.92;101118.73;116638;1192;21959;-76
2021/09/29 04:46:28;;;;;;;36.90;33.30;;;;;;;8.01;74.07;101117.65;116735;1192;21882;-76
2021/09/29 04:49:03;;;;;;;;;;;;;;;8.03;74.07;101112.09;116823;1190;21895;-76
2021/09/29 04:52:06;;;;;;;39.30;35.40;;;;;;;7.95;74.30;101112.64;116873;1190;21895;-77
2021/09/29 04:55:03;;;;;;;;;;;;;;;;;;;;;
2021/09/29 04:57:37;;;;;;;33.80;30.30;;;;;;;8.02;74.30;101116.57;116847;1190;21893;-77
2021/09/29 05:00:08;;;;;;;32.00;28.60;;;;;;;8.04;74.18;101119.87;116832;1190;22943;-77
2021/09/29 05:02:43;;;;;;;31.20;28.00;;;;;;;8.06;74.17;101121.83;116866;1190;23541;-78
2021/09/29 05:05:15;;;;;;;31.70;28.80;;;;;;;8.07;73.92;101119.33;117006;1187;22194;-77
2021/09/29 05:08:01;;;;;;;30.60;27.30;;;;;;;8.08;73.99;101119.23;116694;1190;22077;-78
2021/09/29 05:11:03;;;;;;;30.30;27.20;;;;;;;8.08;74.07;101119.23;116829;1189;21900;-78
2021/09/29 05:13:34;;;;;;;31.40;28.40;;;;;;;8.09;74.14;101115.42;116633;1192;21884;-78
2021/09/29 05:16:08;;;;;;;31.20;27.50;;;;;;;8.11;74.04;101115.75;116620;1190;21894;-79
2021/09/29 05:19:04;;;;;;;30.00;27.20;;;;;;;8.12;73.99;101118.14;116327;1196;23462;-78
2021/09/29 05:21:42;;;;;;;30.10;27.50;;;;;;;8.16;74.11;101122.06;116283;1196;21899;-78
2021/09/29 05:24:12;;;;;;;30.20;27.40;;;;;;;8.17;74.03;101125.80;116312;1196;23636;-77
2021/09/29 05:26:41;;;;;;;32.90;28.60;;;;;;;8.19;73.97;101126.67;116453;1193;23574;-78
2021/09/29 05:29:17;;;;;;;30.10;27.10;;;;;;;8.23;73.92;101127.56;116325;1193;22933;-78
2021/09/29 05:31:46;;;;;;;28.80;26.00;;;;;;;8.25;73.92;101128.04;116444;1193;21902;-78
2021/09/29 05:34:20;;;;;;;30.10;27.30;;;;;;;8.29;73.97;101128.96;116304;1196;21887;-78
2021/09/29 05:36:50;;;;;;;27.30;24.50;;;;;;;8.34;73.97;101125.34;116397;1192;21885;-78
2021/09/29 05:39:20;;;;;;;28.90;24.50;;;;;;;8.39;74.00;101127.20;116611;1191;21965;-78
2021/09/29 05:41:49;;;;;;;30.10;24.50;;;;;;;8.44;73.82;101130.83;116952;1187;23533;-77
2021/09/29 05:44:19;;;;;;;28.90;24.80;;;;;;;8.47;73.69;101128.25;116970;1190;21888;-77
2021/09/29 05:46:54;;;;;;;28.90;26.00;;;;;;;8.52;73.80;101120.14;116970;1187;21887;-77
2021/09/29 05:49:23;;;;;;;27.70;24.40;;;;;;;8.56;73.63;101117.09;116973;1187;21911;-77
2021/09/29 05:51:52;;;;;;;28.50;25.40;;;;;;;8.61;73.49;101117.80;117089;1186;23456;-77
2021/09/29 05:54:22;;;;;;;26.30;23.60;;;;;;;8.64;73.42;101115.94;117050;1187;22217;-77
2021/09/29 05:56:51;;;;;;;24.00;20.90;;;;;;;8.67;73.40;101117.05;116948;1187;23441;-77
2021/09/29 05:59:20;;;;;;;23.60;21.10;;;;;;;8.73;73.40;101114.44;117169;1187;21893;-78
2021/09/29 06:01:51;;;;;;;24.70;19.60;;;;;;;8.78;73.31;101110.94;117141;1187;24136;-77
2021/09/29 06:04:20;;;;;;;21.30;17.70;;;;;;;8.84;73.33;101109.15;117128;1187;21904;-77
2021/09/29 06:06:51;;;;;;;20.80;17.00;;;;;;;8.92;73.19;101104.77;117075;1188;21899;-77
2021/09/29 06:09:20;;;;;;;24.30;17.90;;;;;;;8.98;73.16;101103.73;116868;1187;22642;-78
2021/09/29 06:11:50;;;;;;;20.10;16.60;;;;;;;9.05;73.13;101098.52;116601;1189;21884;-78
2021/09/29 06:14:20;;;;;;;20.40;15.30;;;;;;;9.12;73.05;101091.19;116299;1196;22048;-78
2021/09/29 06:16:58;;;;;;;21.10;14.90;;;;;;;9.18;72.86;101089.23;116514;1195;21906;-78
2021/09/29 06:19:31;;;;;;;19.90;14.80;;;;;;;9.21;72.65;101090.69;116527;1195;21898;-78
2021/09/29 06:22:15;;;;;;;16.30;14.50;;;;;;;9.25;72.46;101089.62;116375;1196;23542;-76
2021/09/29 06:24:49;;;;;;;15.80;13.30;;;;;;;9.30;72.58;101087.59;116232;1193;21908;-78
2021/09/29 06:27:18;;;;;;;17.70;13.10;;;;;;;9.42;72.80;101088.23;115816;1201;21998;-77
2021/09/29 06:29:47;;;;;;;18.60;14.50;;;;;;;9.55;72.57;101084.07;115928;1201;22423;-77
2021/09/29 06:32:17;;;;;;;20.10;13.40;;;;;;;9.67;72.47;101082.05;115976;1197;24187;-77
2021/09/29 06:34:46;;;;;;;16.90;12.70;;;;;;;9.80;72.32;101082.05;116243;1196;21894;-78
2021/09/29 06:37:16;;;;;;;17.20;13.10;;;;;;;9.92;72.05;101080.21;116460;1193;21971;-78
2021/09/29 06:39:45;;;;;;;14.70;12.20;;;;;;;10.05;71.86;101084.40;116456;1194;21907;-76
2021/09/29 06:42:15;;;;;;;18.10;12.60;;;;;;;10.21;71.67;101081.52;116619;1191;23208;-77
2021/09/29 06:44:45;;;;;;;14.20;11.40;;;;;;;10.37;71.20;101080.18;116566;1191;21895;-79
2021/09/29 06:47:14;;;;;;;13.40;11.90;;;;;;;10.52;70.81;101079.60;116594;1190;22807;-78
2021/09/29 06:49:43;;;;;;;16.00;12.40;;;;;;;10.77;71.33;101076.61;116519;1190;21903;-78
2021/09/29 06:52:13;;;;;;;13.30;11.40;;;;;;;11.16;71.73;101082.63;116667;1190;21884;-77
2021/09/29 06:54:42;;;;;;;16.20;14.00;;;;;;;11.59;71.21;101084.63;116848;1191;23475;-78
2021/09/29 06:57:12;;;;;;;17.60;13.10;;;;;;;11.95;69.68;101083.00;116926;1190;21892;-77
2021/09/29 06:59:43;;;;;;;14.40;11.80;;;;;;;12.26;68.45;101080.68;116885;1190;23608;-79
2021/09/29 07:02:13;;;;;;;17.60;12.30;;;;;;;12.59;67.64;101082.88;116815;1191;21888;-78
2021/09/29 07:04:43;;;;;;;18.60;12.90;;;;;;;12.85;66.27;101079.36;116577;1193;23283;-78
2021/09/29 07:07:13;;;;;;;14.70;11.80;;;;;;;13.12;65.78;101077.27;116598;1190;21886;-78
2021/09/29 07:09:42;;;;;;;14.30;12.10;;;;;;;13.33;64.00;101079.48;116593;1190;23570;-78
2021/09/29 07:12:11;;;;;;;16.30;12.00;;;;;;;13.40;62.64;101074.70;116584;1192;21901;-77
2021/09/29 07:14:41;;;;;;;15.30;11.20;;;;;;;13.52;62.46;101076.23;116456;1195;23567;-78
2021/09/29 07:17:15;;;;;;;14.90;12.30;;;;;;;13.65;61.83;101071.52;116531;1196;22867;-78
2021/09/29 07:19:52;;;;;;;13.00;11.70;;;;;;;13.88;62.39;101071.52;116232;1197;23564;-78
2021/09/29 07:22:22;;;;;;;14.40;12.80;;;;;;;14.07;60.87;101074.81;115861;1197;22927;-79
2021/09/29 07:24:55;;;;;;;16.20;13.20;;;;;;;14.20;60.77;101068.58;116455;1195;22128;-83
2021/09/29 07:27:45;;;;;;;13.20;10.50;;;;;;;14.51;61.11;101068.75;116377;1189;23173;-79
2021/09/29 07:30:28;;;;;;;;;;;;;;;;;;;;;
2021/09/29 07:33:17;;;;;;;16.90;13.30;;;;;;;14.94;58.40;101072.28;116205;1197;23490;-78
2021/09/29 07:35:46;;;;;;;20.10;14.10;;;;;;;15.06;58.14;101071.48;116324;1192;22120;-78
2021/09/29 07:38:16;;;;;;;18.40;13.90;;;;;;;15.15;57.31;101071.91;116458;1193;23693;-79
2021/09/29 07:40:46;;;;;;;17.00;12.80;;;;;;;15.06;56.13;101078.23;116617;1190;22923;-79
2021/09/29 07:43:16;;;;;;;13.10;11.60;;;;;;;14.89;55.79;101076.11;116429;1196;23448;-79
2021/09/29 07:45:46;;;;;;;23.50;14.90;;;;;;;14.85;56.26;101068.84;116338;1193;23544;-78
2021/09/29 07:48:15;;;;;;;18.50;13.50;;;;;;;14.84;56.51;101063.17;116312;1196;21924;-79
2021/09/29 07:50:45;;;;;;;17.80;11.80;;;;;;;14.98;56.85;101061.16;116245;1196;22816;-79
2021/09/29 07:53:15;;;;;;;14.30;11.40;;;;;;;15.19;56.85;101060.72;116326;1196;22870;-79
2021/09/29 07:55:45;;;;;;;17.20;11.70;;;;;;;15.22;55.32;101057.73;116235;1196;22637;-78
2021/09/29 07:58:14;;;;;;;14.40;11.80;;;;;;;15.09;54.57;101053.96;116363;1194;23563;-79
2021/09/29 08:00:44;;;;;;;13.10;11.10;;;;;;;15.02;55.51;101049.87;116539;1192;21907;-79
2021/09/29 08:03:14;;;;;;;13.90;11.20;;;;;;;15.11;55.69;101045.55;116565;1190;23477;-79
2021/09/29 08:05:44;;;;;;;17.60;12.90;;;;;;;15.24;55.75;101046.06;116594;1191;21906;-79
2021/09/29 08:08:13;;;;;;;16.30;10.70;;;;;;;15.37;54.67;101047.61;116775;1187;22745;-79
2021/09/29 08:10:42;;;;;;;15.20;12.00;;;;;;;15.36;54.17;101040.40;116946;1187;22229;-79
2021/09/29 08:13:12;;;;;;;13.30;11.00;;;;;;;15.45;54.26;101027.48;117147;1187;21898;-79
2021/09/29 08:15:41;;;;;;;14.80;9.80;;;;;;;15.49;53.82;101023.79;116546;1190;22844;-79
2021/09/29 08:18:40;;;;;;;17.20;10.10;;;;;;;15.55;53.89;101016.52;116456;1192;21900;-78
2021/09/29 08:21:16;;;;;;;16.40;11.20;;;;;;;15.80;54.33;101011.96;116278;1189;22936;-79
2021/09/29 08:23:47;;;;;;;15.30;10.20;;;;;;;15.86;53.08;101009.80;116300;1198;21949;-80
2021/09/29 08:29:38;;;;;;;16.00;9.90;;;;;;;15.94;52.89;101001.48;116008;1200;23021;-80
2021/09/29 08:32:14;;;;;;;13.10;10.40;;;;;;;15.97;52.76;101000.41;115996;1200;22074;-80
2021/09/29 08:40:17;;;;;;;11.40;9.70;;;;;;;16.28;52.38;100979.27;116335;1193;22737;-78
2021/09/29 08:43:08;;;;;;;11.30;10.10;;;;;;;16.38;51.92;100978.84;116485;1192;21908;-79
2021/09/29 08:45:52;;;;;;;12.20;10.20;;;;;;;16.51;52.32;100970.29;116129;1197;22859;-78
2021/09/29 08:48:38;;;;;;;12.10;9.90;;;;;;;16.76;51.98;100965.09;116213;1197;22203;-77
2021/09/29 08:52:20;;;;;;;13.90;8.80;;;;;;;16.85;50.93;100955.33;116301;1195;21909;-76
2021/09/29 08:54:15;;;;;;;15.30;7.80;;;;;;;16.87;50.51;100946.06;115803;1200;22813;-76
2021/09/29 09:16:35;;;;;;;12.10;8.00;;;;;;;16.96;49.18;100936.77;116711;1191;21903;-77
2021/09/29 09:22:12;;;;;;;12.40;8.80;;;;;;;17.06;49.12;100919.75;116372;1194;21895;-78
2021/09/29 09:24:52;;;;;;;12.00;8.80;;;;;;;17.06;48.93;100915.48;116698;1192;22154;-77
2021/09/29 09:27:22;;;;;;;12.50;8.60;;;;;;;17.06;48.96;100914.16;116817;1192;21956;-81
2021/09/29 09:29:53;;;;;;;12.80;8.50;;;;;;;17.05;49.09;100920.27;116584;1192;21881;-77
2021/09/29 09:32:23;;;;;;;15.00;9.20;;;;;;;17.04;48.62;100921.20;116563;1192;23539;-77
2021/09/29 09:35:04;;;;;;;15.50;9.50;;;;;;;16.96;48.61;100927.33;116554;1192;21936;-77
2021/09/29 09:37:38;;;;;;;9.90;8.40;;;;;;;16.89;48.83;100926.38;116674;1190;21986;-77
2021/09/29 09:40:17;;;;;;;13.60;8.70;;;;;;;16.95;49.31;100925.34;116748;1191;21904;-77
2021/09/29 09:43:17;;;;;;;11.80;8.60;;;;;;;17.02;48.93;100927.20;116578;1192;22191;-76
2021/09/29 09:46:15;;;;;;;14.70;10.20;;;;;;;17.05;49.06;100927.09;116364;1193;22100;-77
2021/09/29 09:48:45;;;;;;;10.30;7.90;;;;;;;17.15;49.24;100925.96;116582;1190;23543;-77
2021/09/29 09:51:15;;;;;;;10.10;8.50;;;;;;;17.26;48.68;100927.70;116321;1194;22220;-77
2021/09/29 09:53:54;;;;;;;13.20;8.90;;;;;;;17.34;48.64;100930.25;116408;1192;22001;-77
2021/09/29 09:56:30;;;;;;;12.40;9.50;;;;;;;17.42;48.59;100927.13;116251;1193;22981;-77
2021/09/29 09:58:59;;;;;;;15.00;8.50;;;;;;;17.51;48.62;100916.67;116200;1184;23014;-77
2021/09/29 10:01:30;;;;;;;14.50;8.90;;;;;;;17.71;48.80;100915.52;116449;1183;21902;-77
2021/09/29 10:04:20;;;;;;;15.30;11.00;;;;;;;17.80;47.98;100917.23;116789;1192;21894;-78
2021/09/29 10:06:49;;;;;;;17.00;11.50;;;;;;;17.69;47.22;100916.87;116538;1195;21886;-78
2021/09/29 10:09:28;;;;;;;;;;;;;;;17.51;47.50;100917.59;116616;1192;22671;-77
2021/09/29 10:27:42;;;;;;;22.30;16.60;;;;;;;17.46;48.80;100893.77;116204;1197;23618;-77
2021/09/29 10:30:13;;;;;;;31.90;26.90;;;;;;;17.57;48.27;100897.11;116395;1196;24193;-76
2021/09/29 10:32:47;;;;;;;22.30;20.00;;;;;;;17.46;47.59;100894.19;116521;1193;23483;-76
2021/09/29 10:49:22;;;;;;;14.80;11.10;;;;;;;16.73;49.07;100879.20;116810;1189;21904;-78
2021/09/29 11:27:32;;;;;;;23.90;12.60;;;;;;;16.08;51.76;100856.38;117260;1187;22875;-78
2021/09/29 11:31:35;;;;;;;12.40;10.30;;;;;;;16.10;52.53;100849.83;116705;1184;21943;-77
2021/09/29 11:34:10;;;;;;;13.10;9.70;;;;;;;16.13;52.53;100848.50;116493;1192;22615;-78
2021/09/29 12:10:28;;;;;;;14.30;12.50;;;;;;;15.74;53.97;100813.16;116806;1192;22926;-78
2021/09/29 12:13:00;;;;;;;19.10;12.90;;;;;;;15.75;53.98;100814.05;116843;1192;21900;-77
2021/09/29 12:15:29;;;;;;;17.50;11.50;;;;;;;15.74;54.24;100813.23;116798;1179;21900;-78
2021/09/29 12:18:09;;;;;;;20.60;13.50;;;;;;;15.77;54.32;100817.10;116900;1190;22067;-75
2021/09/29 12:20:52;;;;;;;18.60;13.30;;;;;;;15.74;54.20;100819.16;116938;1190;21962;-78
2021/09/29 12:23:23;;;;;;;16.60;12.60;;;;;;;15.71;54.46;100822.66;116990;1190;21896;-78
2021/09/29 12:26:16;;;;;;;15.30;13.00;;;;;;;15.69;54.52;100831.07;116955;1187;21912;-78
2021/09/29 12:28:58;;;;;;;21.80;13.10;;;;;;;15.62;54.54;100830.98;117164;1188;21888;-78
2021/09/29 12:32:07;;;;;;;17.00;13.50;;;;;;;15.59;54.81;100832.13;117280;1188;21890;-78
2021/09/29 12:36:54;;;;;;;;;;;;;;;15.64;55.35;100834.16;117230;1188;21862;-78
2021/09/29 12:39:28;;;;;;;14.80;12.70;;;;;;;15.63;55.39;100833.36;117160;1185;21893;-78
2021/09/29 12:41:57;;;;;;;18.50;12.70;;;;;;;15.62;55.06;100835.65;117136;1188;21903;-77
2021/09/29 12:44:26;;;;;;;17.80;12.30;;;;;;;15.61;55.15;100835.64;117226;1187;22901;-78
2021/09/29 12:49:37;;;;;;;18.20;12.70;;;;;;;15.71;55.55;100830.95;117128;1187;21879;-77
2021/09/29 12:52:10;;;;;;;17.10;13.20;;;;;;;15.77;55.38;100832.93;117203;1188;21897;-79
2021/09/29 12:54:46;;;;;;;15.40;12.40;;;;;;;15.77;55.40;100834.39;117477;1190;21920;-77
2021/09/29 12:57:16;;;;;;;20.90;13.70;;;;;;;15.82;55.37;100834.45;116931;1190;21894;-77
2021/09/29 12:59:46;;;;;;;15.00;12.60;;;;;;;15.83;55.02;100831.30;117065;1190;22044;-77
2021/09/29 13:02:15;;;;;;;14.70;11.90;;;;;;;15.85;55.26;100824.88;116858;1187;21903;-78
2021/09/29 13:04:44;;;;;;;16.80;11.80;;;;;;;15.87;55.39;100827.04;116894;1191;21893;-77
2021/09/29 13:07:13;;;;;;;18.20;12.20;;;;;;;15.92;55.47;100825.53;116907;1191;21878;-77
2021/09/29 13:09:43;;;;;;;18.10;13.00;;;;;;;15.99;55.20;100823.39;116920;1191;23385;-77
2021/09/29 13:12:12;;;;;;;17.10;12.60;;;;;;;16.05;55.19;100823.96;116931;1186;21892;-77
2021/09/29 13:14:41;;;;;;;17.10;13.60;;;;;;;16.07;54.96;100821.52;117253;1185;22636;-77
2021/09/29 13:17:10;;;;;;;17.10;13.90;;;;;;;16.02;54.91;100820.05;117131;1187;21879;-78
2021/09/29 13:19:58;;;;;;;17.90;13.90;;;;;;;15.96;55.03;100818.44;117232;1187;21942;-79
2021/09/29 13:22:30;;;;;;;17.80;13.70;;;;;;;15.99;55.53;100815.10;117222;1187;22735;-77
2021/09/29 13:38:58;;;;;;;15.60;13.40;;;;;;;15.68;56.07;100806.92;117117;1187;21899;-76
2021/09/29 13:41:27;;;;;;;19.60;14.40;;;;;;;15.69;56.23;100801.95;117248;1187;21894;-77
2021/09/29 13:43:57;;;;;;;20.50;15.10;;;;;;;15.75;56.52;100794.96;117130;1187;21882;-77
2021/09/29 13:46:26;;;;;;;21.10;14.90;;;;;;;15.82;56.39;100793.23;117118;1187;22849;-77
2021/09/29 13:48:57;;;;;;;17.70;14.50;;;;;;;15.79;55.95;100791.46;117283;1188;21901;-76
2021/09/29 13:51:27;;;;;;;21.60;15.20;;;;;;;15.74;56.33;100790.81;117154;1188;21886;-78
2021/09/29 13:53:58;;;;;;;18.00;14.40;;;;;;;15.75;56.35;100790.70;116882;1187;21883;-78
2021/09/29 13:56:33;;;;;;;20.00;14.40;;;;;;;15.75;56.46;100790.23;116919;1189;22906;-78
2021/09/29 13:59:18;;;;;;;19.70;16.00;;;;;;;15.70;56.35;100795.04;116956;1186;22650;-78
2021/09/29 14:35:20;;;;;;;18.20;15.80;;;;;;;15.15;58.28;100781.98;116980;1190;21985;-79
2021/09/29 14:37:50;;;;;;;18.40;15.70;;;;;;;15.17;58.23;100788.33;116886;1190;21887;-78
2021/09/29 14:40:22;;;;;;;20.90;16.40;;;;;;;15.14;58.17;100783.19;116847;1191;21899;-78
2021/09/29 14:42:52;;;;;;;19.80;15.90;;;;;;;15.09;58.08;100782.71;116478;1194;23461;-79